Home   Weather   Greece   Ilioupoli   Past weeks
Flag for Greece

Past Weather in Ilioupoli, Greece — Yesterday and Last 2 Weeks

Currently: 77 °F. Clear. (Weather station: Eleftherios Venizelos International Airport, Greece). See more current weather

Past Weather in Ilioupoli — Graph

°F

Ilioupoli Temperature Yesterday

Maximum temperature yesterday: 102 °F (at 4:20 pm)
Minimum temperature yesterday: 77 °F (at 12:20 am)
Average temperature yesterday: 88 °F

High & Low Weather Summary for the Past Weeks

 TemperatureHumidityPressure
High102 °F (Jul 30, 4:20 pm)94% (Jul 19, 6:20 am)30.07 "Hg (Jul 19, 6:20 am)
Low68 °F (Jul 18, 4:50 am)16% (Jul 28, 4:50 pm)29.59 "Hg (Jul 18, 2:50 am)
Average83 °F43%29.85 "Hg
* Reported Jul 16 5:20 am — Jul 31 5:20 am, Ilioupoli. Weather by CustomWeather, © 2021

Note: Actual official high and low records may vary slightly from our data, if they occured in-between our weather recording intervals... More about our weather records

Ilioupoli Weather History for the Previous 24 Hours

Scroll right to see more
 ConditionsComfort  
Time TempWeatherWind HumidityBarometerVisibility
5:20 am
Sat, Jul 31
77 °FClear.No wind47%29.74 "Hg10 mi
4:50 am77 °FClear.5 mph47%29.74 "Hg10 mi
4:20 am79 °FClear.No wind45%29.74 "Hg10 mi
3:50 am79 °FClear.1 mph45%29.77 "Hg10 mi
3:20 am82 °FClear.3 mph42%29.77 "Hg10 mi
2:50 am81 °FClear.3 mph45%29.77 "Hg10 mi
2:20 am81 °FClear.No wind48%29.77 "Hg10 mi
1:50 am82 °FClear.1 mph45%29.77 "Hg10 mi
1:20 am82 °FClear.2 mph45%29.77 "Hg10 mi
12:50 am84 °FClear.5 mph43%29.77 "Hg10 mi
12:20 am84 °FClear.3 mph43%29.80 "Hg10 mi
11:50 pm
Fri, Jul 30
84 °FClear.5 mph45%29.80 "Hg10 mi
11:20 pm84 °FClear.3 mph45%29.80 "Hg10 mi
10:50 pm84 °FClear.3 mph51%29.80 "Hg10 mi
10:20 pm86 °FClear.6 mph49%29.80 "Hg10 mi
9:50 pm88 °FPassing clouds.5 mph43%29.80 "HgN/A
9:20 pm90 °FClear.2 mph33%29.77 "Hg10 mi
8:50 pm91 °FClear.No wind28%29.77 "Hg10 mi
8:20 pm93 °FSunny.6 mph32%29.77 "Hg10 mi
7:50 pm97 °FSunny.5 mph25%29.77 "Hg10 mi
7:20 pm97 °FPassing clouds.5 mph28%29.77 "HgN/A
6:50 pm100 °FPassing clouds.6 mph20%29.77 "HgN/A
6:20 pm100 °FPassing clouds.7 mph20%29.77 "HgN/A
5:50 pm100 °FPassing clouds.9 mph18%29.77 "HgN/A
5:20 pm102 °FPassing clouds.9 mph18%29.80 "HgN/A
4:50 pm102 °FPassing clouds.8 mph17%29.80 "HgN/A
4:20 pm102 °FPassing clouds.7 mph17%29.80 "HgN/A
3:20 pm100 °FPassing clouds.12 mph20%29.80 "HgN/A
2:20 pm100 °FSunny.16 mph18%29.83 "Hg10 mi
12:50 pm99 °FSunny.10 mph22%29.86 "Hg10 mi
11:20 am95 °FPassing clouds.8 mph26%29.86 "HgN/A
10:50 am93 °FPassing clouds.6 mph34%29.86 "HgN/A
10:20 am91 °FPassing clouds.5 mph34%29.86 "HgN/A
9:50 am91 °FPassing clouds.6 mph34%29.86 "HgN/A
9:20 am90 °FSunny.3 mph36%29.86 "Hg10 mi
8:50 am88 °FSunny.3 mph35%29.86 "Hg10 mi
8:20 am82 °FSunny.1 mph40%29.86 "Hg10 mi
7:50 am82 °FSunny.5 mph37%29.86 "Hg10 mi
7:20 am79 °FSunny.1 mph45%29.86 "Hg10 mi
6:50 am77 °FSunny.2 mph44%29.86 "Hg10 mi
6:20 am77 °FClear.2 mph44%29.83 "Hg10 mi
Weather by CustomWeather, © 2021

See weather overview